Terminal Aerodrome Forecast
Issued by NWS

Home | Current Version | Previous Version | Text Only | Print | Product List | Glossary Off
Versions: 1 2 3 4 5 6 7 8 9 10 11 12

000
FTUS45 KGGW 182327
TAFGDV
TAF
KGDV 182327Z 1900/1924 30010KT P6SM FEW130
     FM190100 08007KT P6SM FEW130
     FM190400 VRB06KT P6SM SKC
     FM191300 27008KT P6SM FEW200
     FM191500 30013G21KT P6SM FEW220=

USA.gov is the U.S. government's official web portal to all federal, state and local government web resources and services.